Time;durP1;ratioP1;P1;durP2;ratioP2;P2;SDS_P1;SDS_P2;PMS_P1;PMS_P2;Temp;Humidity;BMP_temperature;BMP_pressure;BME280_temperature;BME280_humidity;BME280_pressure;Samples;Min_cycle;Max_cycle;Signal;HPM_P1;HPM_P2
2023/04/27 00:00:29;;;;;;;9.52;7.13;;;2.20;99.90;;;;;;4953913;28;20043;-71
2023/04/27 00:02:55;;;;;;;9.48;6.40;;;2.10;99.90;;;;;;4960794;28;20035;-71
2023/04/27 00:05:21;;;;;;;10.95;6.50;;;2.10;99.90;;;;;;4962176;28;20146;-71
2023/04/27 00:07:47;;;;;;;11.32;6.57;;;2.10;99.90;;;;;;4963577;28;20125;-72
2023/04/27 00:10:12;;;;;;;9.68;6.90;;;2.00;99.90;;;;;;4962946;28;20078;-71
2023/04/27 00:12:38;;;;;;;10.45;6.63;;;2.00;99.90;;;;;;4960481;28;20079;-71
2023/04/27 00:15:05;;;;;;;11.65;6.28;;;2.00;99.90;;;;;;4958132;28;20039;-71
2023/04/27 00:17:31;;;;;;;9.98;6.20;;;1.90;99.90;;;;;;4946259;28;20039;-72
2023/04/27 00:19:57;;;;;;;12.90;6.50;;;1.90;99.90;;;;;;4962775;28;20039;-71
2023/04/27 00:22:23;;;;;;;11.38;5.88;;;1.80;99.90;;;;;;4958481;28;20047;-72
2023/04/27 00:24:48;;;;;;;8.07;5.38;;;1.80;99.90;;;;;;4973350;28;20057;-71
2023/04/27 00:27:14;;;;;;;9.60;5.50;;;1.80;99.90;;;;;;4962786;28;20508;-71
2023/04/27 00:29:41;;;;;;;9.40;5.40;;;1.90;99.90;;;;;;4959749;28;20047;-71
2023/04/27 00:32:10;;;;;;;8.38;5.90;;;1.80;99.90;;;;;;4956342;28;20043;-71
2023/04/27 00:34:37;;;;;;;11.73;6.68;;;1.70;99.90;;;;;;4955517;28;20043;-72
2023/04/27 00:37:04;;;;;;;7.78;6.00;;;1.70;99.90;;;;;;4942215;28;20098;-71
2023/04/27 00:39:30;;;;;;;8.52;5.90;;;1.70;99.90;;;;;;4964097;28;20503;-72
2023/04/27 00:41:56;;;;;;;10.02;6.25;;;1.70;99.90;;;;;;4966271;28;20043;-72
2023/04/27 00:44:23;;;;;;;6.70;5.00;;;1.70;99.90;;;;;;4966306;28;20038;-71
2023/04/27 00:46:49;;;;;;;7.18;5.20;;;1.60;99.90;;;;;;4960732;28;20483;-71
2023/04/27 00:49:15;;;;;;;7.32;5.40;;;1.60;99.90;;;;;;4966108;28;20111;-72
2023/04/27 00:51:41;;;;;;;8.73;5.32;;;1.60;99.90;;;;;;4970255;28;20077;-71
2023/04/27 00:54:08;;;;;;;8.05;5.45;;;1.50;99.90;;;;;;4955408;28;20535;-72
2023/04/27 00:56:33;;;;;;;10.90;5.40;;;1.50;99.90;;;;;;4962950;28;20073;-71
2023/04/27 00:58:59;;;;;;;11.77;5.63;;;1.60;99.90;;;;;;4966479;28;20073;-71
2023/04/27 01:01:25;;;;;;;11.30;6.43;;;1.50;99.90;;;;;;4958024;28;20582;-71
2023/04/27 01:03:51;;;;;;;8.65;5.82;;;1.50;99.90;;;;;;4962859;28;20043;-71
2023/04/27 01:06:17;;;;;;;11.15;5.80;;;1.50;99.90;;;;;;4980579;28;20088;-71
2023/04/27 01:08:43;;;;;;;7.40;5.72;;;1.50;99.90;;;;;;4980620;28;20414;-71
2023/04/27 01:11:08;;;;;;;9.07;5.80;;;1.50;99.90;;;;;;4943977;28;20399;-71
2023/04/27 01:13:34;;;;;;;6.65;5.53;;;1.50;99.90;;;;;;4970638;28;20100;-71
2023/04/27 01:16:00;;;;;;;8.80;5.90;;;1.40;99.90;;;;;;4967289;28;20047;-71
2023/04/27 01:18:26;;;;;;;7.03;5.15;;;1.40;99.90;;;;;;4964058;28;20447;-71
2023/04/27 01:20:52;;;;;;;7.13;5.40;;;1.40;99.90;;;;;;4953939;28;20039;-71
2023/04/27 01:23:17;;;;;;;8.98;5.80;;;1.40;99.90;;;;;;4970130;28;20517;-72
2023/04/27 01:25:43;;;;;;;8.43;5.82;;;1.40;99.90;;;;;;4967444;28;20035;-72
2023/04/27 01:28:09;;;;;;;7.75;5.95;;;1.40;99.90;;;;;;4979714;28;20050;-72
2023/04/27 01:30:35;;;;;;;11.07;6.05;;;1.30;99.90;;;;;;4964027;28;20078;-71
2023/04/27 01:33:00;;;;;;;8.50;6.47;;;1.30;99.90;;;;;;4973761;28;20121;-71
2023/04/27 01:35:26;;;;;;;11.40;6.57;;;1.30;99.90;;;;;;4956958;28;20038;-71
2023/04/27 01:37:52;;;;;;;9.30;6.53;;;1.30;99.90;;;;;;4963451;28;20042;-72
2023/04/27 01:40:18;;;;;;;8.52;6.10;;;1.30;99.90;;;;;;4970961;28;20144;-71
2023/04/27 01:42:43;;;;;;;9.70;5.43;;;1.30;99.90;;;;;;4976846;28;20094;-71
2023/04/27 01:45:10;;;;;;;11.95;6.20;;;1.30;99.90;;;;;;4970991;28;20133;-72
2023/04/27 01:47:36;;;;;;;8.70;5.78;;;1.30;99.90;;;;;;4967839;28;20046;-71
2023/04/27 01:50:01;;;;;;;8.02;5.40;;;1.20;99.90;;;;;;4964642;28;20303;-71
2023/04/27 01:52:27;;;;;;;8.68;6.13;;;1.20;99.90;;;;;;4966792;28;20181;-71
2023/04/27 01:54:53;;;;;;;7.28;5.90;;;1.20;99.90;;;;;;4969990;28;20042;-71
2023/04/27 01:57:18;;;;;;;8.02;5.57;;;1.20;99.90;;;;;;4969937;28;20505;-71
2023/04/27 01:59:44;;;;;;;7.22;5.15;;;1.10;99.90;;;;;;4970624;28;20377;-71
2023/04/27 02:02:10;;;;;;;10.38;5.82;;;1.10;99.90;;;;;;4963521;28;20057;-71
2023/04/27 02:04:35;;;;;;;7.10;5.72;;;1.10;99.90;;;;;;4984604;28;20035;-71
2023/04/27 02:07:02;;;;;;;8.65;5.70;;;1.00;99.90;;;;;;4953181;28;20454;-72
2023/04/27 02:09:28;;;;;;;7.85;5.47;;;1.00;99.90;;;;;;4963653;28;20053;-70
2023/04/27 02:11:53;;;;;;;10.70;6.20;;;1.00;99.90;;;;;;4966953;28;20034;-70
2023/04/27 02:14:19;;;;;;;8.63;5.60;;;1.00;99.90;;;;;;4983372;28;20098;-71
2023/04/27 02:16:45;;;;;;;7.68;5.50;;;1.00;99.90;;;;;;4963205;28;20113;-70
2023/04/27 02:19:10;;;;;;;6.18;5.03;;;1.00;99.90;;;;;;4985347;28;20037;-70
2023/04/27 02:21:38;;;;;;;7.35;5.07;;;1.00;99.90;;;;;;4980897;28;20077;-70
2023/04/27 02:24:04;;;;;;;8.85;5.45;;;0.90;99.90;;;;;;4969865;28;20034;-70
2023/04/27 02:26:29;;;;;;;11.60;5.95;;;1.00;99.90;;;;;;4965007;28;20655;-70
2023/04/27 02:28:58;;;;;;;9.07;5.13;;;1.00;99.90;;;;;;4980283;28;20042;-70
2023/04/27 02:31:24;;;;;;;10.05;5.15;;;1.00;99.90;;;;;;4969015;28;20046;-70
2023/04/27 02:33:49;;;;;;;8.30;5.78;;;0.90;99.90;;;;;;4965108;28;20515;-70
2023/04/27 02:36:15;;;;;;;9.27;6.07;;;0.90;99.90;;;;;;4963560;28;20042;-70
2023/04/27 02:38:41;;;;;;;9.05;6.90;;;0.90;99.90;;;;;;4979894;28;20101;-70
2023/04/27 02:41:06;;;;;;;12.32;6.55;;;0.90;99.90;;;;;;4967557;28;20042;-71
2023/04/27 02:43:32;;;;;;;12.18;6.78;;;0.90;99.90;;;;;;4966221;28;20475;-70
2023/04/27 02:46:02;;;;;;;8.45;6.95;;;0.90;99.90;;;;;;4947601;28;20074;-70
2023/04/27 02:48:29;;;;;;;8.07;6.53;;;0.90;99.90;;;;;;4965696;28;20462;-70
2023/04/27 02:50:55;;;;;;;10.48;7.18;;;1.00;99.90;;;;;;4967810;28;20065;-70
2023/04/27 02:53:21;;;;;;;9.60;8.02;;;0.90;99.90;;;;;;4962104;28;20348;-70
2023/04/27 02:55:47;;;;;;;12.85;8.13;;;0.90;99.90;;;;;;4975777;28;20058;-70
2023/04/27 02:58:13;;;;;;;14.95;8.32;;;0.90;99.90;;;;;;4966615;28;20388;-70
2023/04/27 03:00:40;;;;;;;11.45;7.63;;;0.90;99.90;;;;;;4966319;28;20049;-70
2023/04/27 03:03:06;;;;;;;9.70;7.95;;;0.90;99.90;;;;;;4964779;28;20038;-70
2023/04/27 03:05:32;;;;;;;11.90;8.52;;;0.90;99.90;;;;;;4963303;28;20546;-72
2023/04/27 03:07:58;;;;;;;10.18;7.88;;;0.90;99.90;;;;;;4967290;28;20045;-69
2023/04/27 03:10:24;;;;;;;14.05;8.07;;;0.90;99.90;;;;;;4980616;28;20054;-70
2023/04/27 03:12:49;;;;;;;9.45;7.28;;;0.90;99.90;;;;;;4967097;28;20327;-70
2023/04/27 03:15:15;;;;;;;10.63;7.18;;;0.80;99.90;;;;;;4977067;28;20038;-70
2023/04/27 03:17:41;;;;;;;9.35;6.85;;;0.80;99.90;;;;;;4962487;28;20435;-70
2023/04/27 03:20:08;;;;;;;11.20;7.05;;;0.90;99.90;;;;;;4967721;28;20495;-70
2023/04/27 03:22:35;;;;;;;11.55;7.30;;;0.80;99.90;;;;;;4966936;28;20062;-70
2023/04/27 03:25:02;;;;;;;12.15;7.07;;;0.80;99.90;;;;;;4962234;28;20121;-70
2023/04/27 03:27:28;;;;;;;11.00;6.65;;;0.80;99.90;;;;;;4962970;28;20074;-70
2023/04/27 03:29:53;;;;;;;10.13;6.65;;;0.80;99.90;;;;;;4966034;28;20510;-70
2023/04/27 03:32:19;;;;;;;15.43;7.78;;;0.80;99.90;;;;;;4984052;28;20459;-70
2023/04/27 03:34:45;;;;;;;10.30;6.90;;;0.80;99.90;;;;;;4963983;28;20487;-70
2023/04/27 03:37:11;;;;;;;9.55;6.78;;;0.80;99.90;;;;;;4982967;28;20133;-70
2023/04/27 03:39:37;;;;;;;10.63;6.82;;;0.80;99.90;;;;;;4969448;28;20491;-70
2023/04/27 03:42:03;;;;;;;11.77;7.75;;;0.70;99.90;;;;;;4964414;28;20081;-70
2023/04/27 03:44:32;;;;;;;8.55;6.55;;;0.70;99.90;;;;;;4969959;28;20074;-70
2023/04/27 03:46:59;;;;;;;8.38;6.50;;;0.70;99.90;;;;;;4964561;28;20047;-70
2023/04/27 03:49:25;;;;;;;11.30;7.18;;;0.60;99.90;;;;;;4968361;28;20054;-70
2023/04/27 03:51:51;;;;;;;12.57;6.53;;;0.60;99.90;;;;;;4970676;28;20045;-70
2023/04/27 03:54:17;;;;;;;8.38;5.82;;;0.60;99.90;;;;;;4961301;28;20043;-70
2023/04/27 03:56:43;;;;;;;9.70;6.25;;;0.60;99.90;;;;;;4964517;28;20098;-71
2023/04/27 03:59:09;;;;;;;11.60;6.57;;;0.50;99.90;;;;;;4983173;28;20461;-71
2023/04/27 04:01:35;;;;;;;8.95;6.35;;;0.60;99.90;;;;;;4970358;28;20046;-71
2023/04/27 04:04:01;;;;;;;8.07;6.60;;;0.50;99.90;;;;;;4961210;28;20034;-71
2023/04/27 04:06:27;;;;;;;8.60;6.20;;;0.50;99.90;;;;;;4980165;28;20039;-71
2023/04/27 04:08:53;;;;;;;11.50;6.65;;;0.50;99.90;;;;;;4965842;28;20505;-71
2023/04/27 04:11:19;;;;;;;10.00;6.70;;;0.50;99.90;;;;;;4971701;28;20042;-70
2023/04/27 04:13:46;;;;;;;11.23;6.65;;;0.50;99.90;;;;;;4969526;28;20042;-71
2023/04/27 04:16:12;;;;;;;11.27;6.82;;;0.50;99.90;;;;;;4965960;28;20038;-71
2023/04/27 04:18:38;;;;;;;11.50;6.95;;;0.50;99.90;;;;;;4966870;28;20161;-71
2023/04/27 04:21:04;;;;;;;9.52;6.60;;;0.40;99.90;;;;;;4963410;28;20061;-71
2023/04/27 04:23:31;;;;;;;9.40;6.25;;;0.40;99.90;;;;;;4958885;28;20053;-71
2023/04/27 04:25:57;;;;;;;9.93;7.30;;;0.40;99.90;;;;;;4965499;28;20046;-70
2023/04/27 04:28:23;;;;;;;9.30;7.05;;;0.40;99.90;;;;;;4962628;28;20051;-70
2023/04/27 04:30:50;;;;;;;9.30;7.47;;;0.50;99.90;;;;;;4960076;28;20538;-70
2023/04/27 04:33:16;;;;;;;12.02;6.57;;;0.50;99.90;;;;;;4976852;28;20510;-70
2023/04/27 04:35:42;;;;;;;10.38;6.20;;;0.50;99.90;;;;;;4965877;28;20580;-70
2023/04/27 04:38:09;;;;;;;9.88;6.95;;;0.60;99.90;;;;;;4966981;28;20487;-70
2023/04/27 04:40:36;;;;;;;9.27;7.32;;;0.60;99.90;;;;;;4964762;28;20035;-70
2023/04/27 04:43:02;;;;;;;11.00;6.72;;;0.60;99.90;;;;;;4972680;28;20468;-70
2023/04/27 04:45:28;;;;;;;9.98;6.97;;;0.70;99.90;;;;;;4964455;28;20061;-70
2023/04/27 04:47:54;;;;;;;10.02;6.55;;;0.70;99.90;;;;;;4957711;28;20172;-70
2023/04/27 04:50:20;;;;;;;7.97;6.18;;;0.70;99.90;;;;;;4955892;28;20086;-70
2023/04/27 04:52:46;;;;;;;8.00;5.95;;;0.70;99.90;;;;;;4961510;28;20129;-70
2023/04/27 04:55:12;;;;;;;12.38;7.35;;;0.70;99.90;;;;;;4960222;28;20206;-70
2023/04/27 04:57:37;;;;;;;12.38;6.90;;;0.80;99.90;;;;;;4957488;28;20054;-70
2023/04/27 05:00:05;;;;;;;9.18;6.88;;;0.80;99.90;;;;;;4977295;28;20559;-70
2023/04/27 05:02:31;;;;;;;8.85;7.22;;;0.90;99.90;;;;;;4960477;28;20043;-70
2023/04/27 05:04:57;;;;;;;9.30;6.78;;;0.90;99.90;;;;;;4961859;28;20047;-70
2023/04/27 05:07:22;;;;;;;9.50;7.00;;;1.10;99.90;;;;;;4960858;28;20511;-70
2023/04/27 05:09:48;;;;;;;11.70;6.78;;;1.10;99.90;;;;;;4956407;28;20440;-70
2023/04/27 05:12:14;;;;;;;10.15;6.65;;;1.20;99.90;;;;;;4966255;28;20073;-70
2023/04/27 05:14:40;;;;;;;9.82;7.38;;;1.30;99.90;;;;;;4964419;28;20049;-70
2023/04/27 05:17:05;;;;;;;12.13;6.70;;;1.40;99.90;;;;;;4962368;28;20054;-71
2023/04/27 05:19:31;;;;;;;11.00;7.28;;;1.50;99.90;;;;;;4959389;28;20401;-71
2023/04/27 05:21:58;;;;;;;10.77;7.80;;;1.70;99.90;;;;;;4967213;28;20031;-71
2023/04/27 05:24:25;;;;;;;9.77;7.40;;;1.70;99.90;;;;;;4952104;28;20407;-71
2023/04/27 05:26:50;;;;;;;10.77;7.40;;;1.80;99.90;;;;;;4969617;28;20038;-71
2023/04/27 05:29:16;;;;;;;9.52;7.68;;;1.90;99.90;;;;;;4958551;28;20447;-69
2023/04/27 05:31:42;;;;;;;13.93;7.78;;;2.00;99.90;;;;;;4964553;28;20130;-70
2023/04/27 05:34:08;;;;;;;13.82;8.63;;;2.20;99.90;;;;;;4967260;28;20105;-69
2023/04/27 05:36:35;;;;;;;9.52;7.68;;;2.30;99.90;;;;;;4964709;28;20039;-69
2023/04/27 05:39:01;;;;;;;10.73;7.50;;;2.60;99.90;;;;;;4965034;28;20061;-69
2023/04/27 05:41:29;;;;;;;12.45;8.27;;;3.00;99.90;;;;;;4963050;28;20042;-69
2023/04/27 05:43:55;;;;;;;10.73;8.10;;;3.40;99.90;;;;;;4965402;28;20062;-70
2023/04/27 05:46:20;;;;;;;11.20;7.97;;;3.70;99.90;;;;;;4956539;28;20726;-70
2023/04/27 05:48:46;;;;;;;12.23;8.32;;;4.00;99.90;;;;;;4965651;28;20030;-70
2023/04/27 05:51:12;;;;;;;13.48;8.32;;;4.10;99.90;;;;;;4964143;28;20117;-70
2023/04/27 05:53:38;;;;;;;13.80;7.72;;;4.20;99.90;;;;;;4966021;28;20491;-69
2023/04/27 05:56:05;;;;;;;10.70;7.95;;;4.30;99.90;;;;;;4966657;28;20542;-69
2023/04/27 05:58:32;;;;;;;15.60;8.25;;;4.40;99.90;;;;;;4964755;28;20045;-69
2023/04/27 06:00:59;;;;;;;10.00;7.50;;;4.50;99.90;;;;;;4963812;28;20399;-70
2023/04/27 06:03:25;;;;;;;12.45;7.60;;;4.60;99.90;;;;;;4947126;28;20055;-69
2023/04/27 06:05:58;;;;;;;11.15;7.38;;;4.80;99.90;;;;;;4968549;28;20391;-70
2023/04/27 06:08:24;;;;;;;10.60;7.53;;;4.90;99.90;;;;;;4949560;28;20054;-70
2023/04/27 06:10:50;;;;;;;11.68;7.40;;;5.00;99.90;;;;;;4962478;28;20038;-71
2023/04/27 06:13:16;;;;;;;12.40;6.50;;;5.10;99.90;;;;;;4967672;28;20051;-70
2023/04/27 06:15:42;;;;;;;8.93;6.30;;;5.40;99.90;;;;;;4961967;28;20035;-70
2023/04/27 06:18:08;;;;;;;8.85;6.78;;;5.40;99.90;;;;;;4961791;28;20190;-70
2023/04/27 06:20:33;;;;;;;12.10;6.10;;;5.60;99.90;;;;;;4964741;28;20039;-71
2023/04/27 06:23:00;;;;;;;13.05;6.93;;;5.80;99.90;;;;;;4969990;28;20042;-70
2023/04/27 06:25:27;;;;;;;10.43;7.07;;;5.90;99.90;;;;;;4959641;28;20047;-71
2023/04/27 06:27:54;;;;;;;8.50;6.80;;;6.00;99.90;;;;;;4963339;28;20057;-70
2023/04/27 06:30:20;;;;;;;10.50;7.57;;;6.10;99.90;;;;;;4966019;28;20109;-71
2023/04/27 06:32:45;;;;;;;7.53;6.65;;;6.30;99.90;;;;;;4967618;28;20035;-70
2023/04/27 06:35:11;;;;;;;8.43;6.15;;;6.50;99.90;;;;;;4956798;28;20106;-71
2023/04/27 06:37:37;;;;;;;7.32;5.97;;;6.60;99.90;;;;;;4975412;28;20047;-70
2023/04/27 06:40:03;;;;;;;9.10;5.90;;;6.70;99.90;;;;;;4967779;28;20043;-70
2023/04/27 06:42:29;;;;;;;7.93;5.35;;;6.80;99.90;;;;;;4961977;28;20042;-71
2023/04/27 06:44:55;;;;;;;10.48;6.38;;;7.00;99.90;;;;;;4964944;28;20046;-71
2023/04/27 06:47:21;;;;;;;10.00;5.47;;;7.10;99.90;;;;;;4980527;28;20053;-71
2023/04/27 06:49:47;;;;;;;8.50;5.40;;;7.20;99.90;;;;;;4970045;28;20112;-72
2023/04/27 06:52:13;;;;;;;7.10;5.40;;;7.40;99.90;;;;;;4964090;28;20122;-72
2023/04/27 06:54:39;;;;;;;7.63;5.30;;;7.50;99.90;;;;;;4985416;28;20510;-71
2023/04/27 06:57:05;;;;;;;7.63;5.15;;;7.60;99.90;;;;;;4984498;28;20129;-71
2023/04/27 06:59:31;;;;;;;7.38;5.10;;;7.80;99.90;;;;;;4969846;28;20399;-71
2023/04/27 07:01:57;;;;;;;7.82;4.88;;;8.00;99.90;;;;;;4964688;28;20054;-72
2023/04/27 07:04:23;;;;;;;8.23;5.60;;;8.10;99.90;;;;;;4946839;28;20403;-71
2023/04/27 07:06:48;;;;;;;8.05;5.82;;;8.30;99.90;;;;;;4969703;28;20042;-72
2023/04/27 07:09:14;;;;;;;8.43;5.90;;;8.40;99.90;;;;;;4967971;28;20149;-72
2023/04/27 07:11:40;;;;;;;6.38;5.20;;;8.70;99.90;;;;;;4968512;28;20057;-73
2023/04/27 07:14:06;;;;;;;8.20;4.20;;;8.90;99.90;;;;;;4983281;28;20050;-73
2023/04/27 07:16:31;;;;;;;7.55;4.70;;;9.00;99.90;;;;;;4970559;28;20580;-73
2023/04/27 07:18:57;;;;;;;4.40;3.50;;;9.20;99.90;;;;;;4970403;28;20462;-73
2023/04/27 07:21:23;;;;;;;9.65;3.45;;;9.30;99.90;;;;;;4968774;28;20045;-73
2023/04/27 07:23:48;;;;;;;5.88;2.70;;;9.40;99.90;;;;;;4966485;28;20422;-73
2023/04/27 07:26:14;;;;;;;8.57;3.22;;;9.50;99.90;;;;;;4989663;28;20050;-73
2023/04/27 07:28:40;;;;;;;7.70;2.92;;;9.70;99.90;;;;;;4968287;28;20436;-73
2023/04/27 07:31:06;;;;;;;6.55;3.00;;;9.70;99.90;;;;;;4967458;28;20069;-73
2023/04/27 07:33:32;;;;;;;5.03;2.70;;;9.90;99.90;;;;;;4964503;28;20046;-73
2023/04/27 07:35:58;;;;;;;5.45;2.88;;;10.10;99.90;;;;;;4988361;28;20131;-74
2023/04/27 07:38:24;;;;;;;5.15;2.53;;;10.40;99.90;;;;;;4970259;28;20034;-73
2023/04/27 07:40:51;;;;;;;4.45;2.55;;;10.80;99.90;;;;;;4990610;28;20041;-73
2023/04/27 07:43:17;;;;;;;4.65;2.90;;;11.30;99.90;;;;;;4967972;28;20063;-74
2023/04/27 07:45:44;;;;;;;5.97;2.80;;;11.90;99.90;;;;;;4974852;28;20050;-74
2023/04/27 07:48:10;;;;;;;4.90;2.20;;;12.50;99.90;;;;;;4974595;28;20050;-75
2023/04/27 07:50:35;;;;;;;5.07;2.30;;;13.00;99.90;;;;;;4963887;28;20050;-75
2023/04/27 07:53:02;;;;;;;3.70;2.63;;;13.20;99.90;;;;;;4974564;28;20121;-75
2023/04/27 07:55:28;;;;;;;4.70;2.00;;;13.50;99.90;;;;;;4974612;28;20106;-76
2023/04/27 07:57:55;;;;;;;4.22;1.65;;;13.80;99.90;;;;;;4976151;28;20092;-75
2023/04/27 08:00:22;;;;;;;3.90;1.98;;;14.00;99.90;;;;;;4965109;28;20046;-75
2023/04/27 08:02:49;;;;;;;4.97;1.85;;;14.40;99.90;;;;;;4977390;28;20057;-75
2023/04/27 08:05:16;;;;;;;4.95;1.65;;;14.70;99.90;;;;;;4976440;28;20046;-76
2023/04/27 08:07:41;;;;;;;2.55;1.48;;;15.00;99.90;;;;;;4974722;28;20043;-76
2023/04/27 08:10:07;;;;;;;1.90;1.17;;;15.20;99.90;;;;;;4969178;28;20466;-75
2023/04/27 08:12:33;;;;;;;2.63;1.25;;;15.60;99.90;;;;;;4975880;28;20052;-76
2023/04/27 08:14:59;;;;;;;2.78;0.90;;;16.10;99.90;;;;;;4980552;28;20291;-76
2023/04/27 08:17:25;;;;;;;3.58;1.05;;;16.40;99.90;;;;;;4990752;28;20486;-76
2023/04/27 08:19:51;;;;;;;2.95;0.95;;;16.50;95.80;;;;;;4977885;28;20061;-76
2023/04/27 08:22:17;;;;;;;3.42;1.02;;;16.70;94.80;;;;;;4995555;28;20090;-76
2023/04/27 08:24:43;;;;;;;5.80;0.98;;;16.60;92.70;;;;;;4956186;28;20050;-76
2023/04/27 08:27:08;;;;;;;3.13;0.93;;;16.70;92.10;;;;;;4972023;28;20034;-76
2023/04/27 08:29:35;;;;;;;3.28;1.10;;;16.80;91.60;;;;;;4969112;28;20074;-76
2023/04/27 08:32:02;;;;;;;3.60;1.00;;;16.90;91.40;;;;;;4968213;28;20039;-77
2023/04/27 08:34:29;;;;;;;3.55;1.17;;;16.90;90.00;;;;;;4974830;28;20053;-77
2023/04/27 08:36:55;;;;;;;5.07;1.23;;;17.10;90.90;;;;;;4974480;28;20039;-77
2023/04/27 08:39:22;;;;;;;2.95;1.15;;;17.30;89.30;;;;;;4978697;28;20042;-78
2023/04/27 08:41:48;;;;;;;3.08;1.25;;;17.40;83.50;;;;;;4976364;28;20478;-77
2023/04/27 08:44:14;;;;;;;2.42;0.95;;;17.20;79.40;;;;;;4971031;28;20074;-77
2023/04/27 08:46:40;;;;;;;2.90;1.00;;;17.10;80.40;;;;;;4966874;28;20061;-77
2023/04/27 08:49:06;;;;;;;3.53;1.30;;;17.20;82.00;;;;;;4965197;28;20043;-77
2023/04/27 08:51:32;;;;;;;1.70;1.08;;;17.30;78.20;;;;;;4977875;28;20050;-77
2023/04/27 08:53:59;;;;;;;3.50;1.40;;;17.40;80.70;;;;;;4962341;28;20073;-77
2023/04/27 08:56:27;;;;;;;2.65;1.10;;;17.40;78.60;;;;;;4958819;28;20183;-77
2023/04/27 08:58:53;;;;;;;2.80;1.42;;;17.40;74.80;;;;;;4971003;28;20039;-77
2023/04/27 09:01:22;;;;;;;3.13;1.20;;;17.40;75.30;;;;;;4956942;28;20073;-77
2023/04/27 09:03:48;;;;;;;2.65;1.35;;;17.40;75.40;;;;;;4976593;28;20070;-77
2023/04/27 09:06:14;;;;;;;4.13;1.65;;;17.50;76.80;;;;;;4972410;28;20047;-77
2023/04/27 09:08:41;;;;;;;3.75;1.63;;;17.60;75.20;;;;;;4971511;28;20085;-77
2023/04/27 09:11:06;;;;;;;4.05;1.70;;;17.70;74.70;;;;;;4976894;28;20063;-77
2023/04/27 09:13:40;;;;;;;2.47;1.25;;;17.70;73.30;;;;;;4972674;28;20119;-77
2023/04/27 09:16:06;;;;;;;;;;;17.70;70.20;;;;;;4968731;28;20517;-77
2023/04/27 09:18:36;;;;;;;4.20;1.40;;;17.60;65.70;;;;;;4975044;28;19922;-77
2023/04/27 09:21:03;;;;;;;3.55;1.60;;;17.50;73.50;;;;;;4963624;28;20054;-77
2023/04/27 09:23:35;;;;;;;4.18;1.60;;;17.70;73.20;;;;;;4977300;28;20054;-77
2023/04/27 09:26:04;;;;;;;2.97;1.30;;;17.90;72.10;;;;;;4967387;28;20042;-77
2023/04/27 09:28:31;;;;;;;4.45;1.40;;;18.20;72.30;;;;;;4974219;28;20479;-77
2023/04/27 09:30:58;;;;;;;5.00;1.50;;;18.30;70.80;;;;;;4978349;28;20039;-77
2023/04/27 09:33:32;;;;;;;4.85;1.60;;;18.30;70.10;;;;;;4974186;28;20549;-78
2023/04/27 09:36:00;;;;;;;3.90;1.38;;;18.40;66.60;;;;;;4958139;28;20031;-78
2023/04/27 09:38:26;;;;;;;3.08;1.50;;;18.30;69.10;;;;;;4967807;28;20043;-78
2023/04/27 09:40:53;;;;;;;3.60;1.67;;;18.30;68.50;;;;;;4979043;28;20118;-78
2023/04/27 09:43:20;;;;;;;4.25;1.70;;;18.40;68.40;;;;;;4978736;28;20058;-78
2023/04/27 09:45:48;;;;;;;4.40;1.88;;;18.20;65.60;;;;;;4984478;28;20043;-77
2023/04/27 09:48:14;;;;;;;4.97;1.98;;;18.00;65.30;;;;;;4977712;28;20106;-77
2023/04/27 09:50:43;;;;;;;5.20;2.25;;;17.70;65.20;;;;;;4978821;28;20051;-77
2023/04/27 09:53:14;;;;;;;5.57;1.92;;;17.60;65.10;;;;;;4979863;28;20102;-76
2023/04/27 09:55:49;;;;;;;5.05;1.90;;;17.70;65.40;;;;;;4971550;28;20537;-77
2023/04/27 09:58:42;;;;;;;4.20;2.15;;;17.80;65.50;;;;;;4962029;28;20070;-77
2023/04/27 10:01:33;;;;;;;4.70;2.10;;;17.90;60.90;;;;;;4979822;28;20035;-77
2023/04/27 10:04:25;;;;;;;4.82;2.03;;;17.80;63.90;;;;;;4977413;28;20055;-77
2023/04/27 10:07:08;;;;;;;4.53;1.67;;;17.90;60.70;;;;;;4984827;28;20051;-77
2023/04/27 10:09:41;;;;;;;4.53;2.45;;;18.00;62.40;;;;;;4980700;28;20038;-77
2023/04/27 10:12:27;;;;;;;3.45;1.85;;;18.00;62.40;;;;;;4981242;28;20056;-76
2023/04/27 10:14:58;;;;;;;4.25;2.00;;;18.00;59.30;;;;;;4979571;28;20057;-77
2023/04/27 10:17:32;;;;;;;3.45;2.15;;;17.90;62.60;;;;;;4981993;28;20062;-77
2023/04/27 10:19:59;;;;;;;5.72;1.77;;;17.80;63.30;;;;;;4980272;28;20038;-77
2023/04/27 10:22:46;;;;;;;4.88;2.38;;;17.70;63.80;;;;;;4986849;28;20118;-77
2023/04/27 10:25:20;;;;;;;4.55;2.13;;;17.70;62.40;;;;;;4954922;29;20035;-77
2023/04/27 10:28:00;;;;;;;4.78;2.40;;;17.60;62.50;;;;;;4966061;28;20039;-77
2023/04/27 10:30:30;;;;;;;3.67;1.80;;;17.60;61.70;;;;;;4973773;28;20176;-77
2023/04/27 10:33:04;;;;;;;3.38;1.90;;;17.50;62.90;;;;;;4978691;28;20093;-78
2023/04/27 10:35:37;;;;;;;5.85;2.20;;;17.60;63.10;;;;;;4958743;28;20066;-77
2023/04/27 10:38:17;;;;;;;3.67;1.90;;;17.50;61.80;;;;;;4976519;28;20058;-77
2023/04/27 10:40:45;;;;;;;4.80;2.22;;;17.50;58.90;;;;;;4972178;28;20043;-77
2023/04/27 10:43:16;;;;;;;3.47;1.95;;;17.60;61.60;;;;;;4976741;28;20062;-77
2023/04/27 10:45:43;;;;;;;4.72;2.00;;;17.50;61.10;;;;;;4977856;28;20407;-78
2023/04/27 10:48:13;;;;;;;3.47;2.25;;;17.40;60.60;;;;;;4957307;28;20035;-77
2023/04/27 10:50:39;;;;;;;5.03;2.08;;;17.30;60.30;;;;;;4978935;28;20057;-77
2023/04/27 10:53:06;;;;;;;4.50;2.20;;;17.30;61.20;;;;;;4969160;28;20039;-78
2023/04/27 10:55:33;;;;;;;6.28;2.20;;;17.20;61.00;;;;;;4968804;28;20491;-77
2023/04/27 10:58:00;;;;;;;3.72;2.00;;;17.20;61.10;;;;;;4977826;28;20054;-77
2023/04/27 11:00:40;;;;;;;4.97;2.08;;;17.10;61.20;;;;;;4973496;28;20043;-77
2023/04/27 11:03:21;;;;;;;5.07;2.58;;;16.90;59.60;;;;;;4971559;28;20062;-77
2023/04/27 11:05:57;;;;;;;4.10;2.30;;;16.60;59.40;;;;;;4972409;28;20097;-77
2023/04/27 11:08:23;;;;;;;4.35;2.47;;;16.20;60.00;;;;;;4958786;28;20180;-77
2023/04/27 11:10:50;;;;;;;5.20;2.72;;;15.90;60.80;;;;;;4956615;28;20047;-77
2023/04/27 11:13:19;;;;;;;5.57;2.65;;;15.70;61.50;;;;;;4958698;28;20039;-77
2023/04/27 11:15:47;;;;;;;3.85;2.63;;;15.50;60.20;;;;;;4968765;28;20062;-77
2023/04/27 11:18:15;;;;;;;8.13;2.35;;;15.40;61.70;;;;;;4965550;28;20085;-76
2023/04/27 11:20:42;;;;;;;4.28;2.10;;;15.40;61.60;;;;;;4965023;28;20047;-76
2023/04/27 11:23:10;;;;;;;3.38;2.03;;;15.60;62.30;;;;;;4970515;28;20178;-77
2023/04/27 11:25:37;;;;;;;4.28;2.45;;;15.50;58.60;;;;;;4967709;28;20142;-77
2023/04/27 11:28:03;;;;;;;5.53;2.45;;;15.50;60.90;;;;;;4971643;28;20043;-77
2023/04/27 11:30:30;;;;;;;6.13;2.55;;;15.40;59.10;;;;;;4968905;28;20542;-77
2023/04/27 11:32:56;;;;;;;4.63;2.63;;;15.30;60.40;;;;;;4961254;28;20051;-77
2023/04/27 11:35:32;;;;;;;4.75;2.45;;;15.30;60.60;;;;;;4970102;28;20039;-77
2023/04/27 11:37:58;;;;;;;4.13;2.40;;;15.20;59.80;;;;;;4956103;28;20050;-77
2023/04/27 11:40:26;;;;;;;5.07;2.42;;;15.00;61.00;;;;;;4969564;28;20039;-77
2023/04/27 11:42:58;;;;;;;6.10;2.70;;;14.70;61.60;;;;;;4954416;28;20525;-77
2023/04/27 11:45:28;;;;;;;7.82;2.40;;;14.50;59.70;;;;;;4986955;28;20116;-76
2023/04/27 11:47:57;;;;;;;4.13;2.17;;;14.40;62.20;;;;;;4962839;28;20042;-76
2023/04/27 11:50:25;;;;;;;5.30;2.45;;;14.30;62.30;;;;;;4965943;28;20053;-76
2023/04/27 11:52:51;;;;;;;4.45;2.38;;;14.40;63.40;;;;;;4960876;28;20038;-76
2023/04/27 11:55:20;;;;;;;5.10;2.67;;;14.90;63.60;;;;;;4969103;28;20047;-76
2023/04/27 11:57:45;;;;;;;4.95;2.20;;;15.30;61.50;;;;;;4982327;28;20699;-77
2023/04/27 12:00:13;;;;;;;6.45;2.70;;;15.60;62.40;;;;;;4970011;28;20143;-77
2023/04/27 12:02:39;;;;;;;3.08;1.90;;;15.70;62.40;;;;;;4971815;28;20042;-77
2023/04/27 12:05:06;;;;;;;6.95;2.70;;;15.80;62.10;;;;;;4974376;28;20180;-76
2023/04/27 12:07:33;;;;;;;5.07;2.40;;;16.10;62.30;;;;;;4968573;28;20464;-77
2023/04/27 12:09:58;;;;;;;4.72;2.65;;;16.50;60.40;;;;;;4976181;28;20035;-77
2023/04/27 12:12:26;;;;;;;3.92;2.50;;;16.80;59.80;;;;;;4950893;28;20053;-77
2023/04/27 12:14:52;;;;;;;4.82;2.63;;;17.20;59.70;;;;;;4957592;28;20477;-78
2023/04/27 12:17:18;;;;;;;4.82;2.60;;;17.60;60.60;;;;;;4967306;28;20034;-77
2023/04/27 12:19:44;;;;;;;4.63;2.78;;;17.90;57.50;;;;;;4960306;28;20120;-78
2023/04/27 12:22:10;;;;;;;6.55;2.35;;;17.80;56.10;;;;;;4959428;28;20034;-78
2023/04/27 12:24:36;;;;;;;4.47;2.53;;;18.00;57.40;;;;;;4971882;28;20493;-77
2023/04/27 12:27:03;;;;;;;4.00;2.00;;;18.00;56.30;;;;;;4975244;28;20042;-77
2023/04/27 12:29:28;;;;;;;3.63;2.20;;;17.80;54.50;;;;;;4957297;28;20574;-78
2023/04/27 12:31:54;;;;;;;4.63;2.45;;;16.90;55.60;;;;;;4959623;28;20084;-78
2023/04/27 12:34:20;;;;;;;5.28;2.40;;;16.90;58.30;;;;;;4973209;28;20046;-78
2023/04/27 12:36:46;;;;;;;3.60;2.20;;;17.00;58.10;;;;;;4976589;28;20042;-78
2023/04/27 12:39:17;;;;;;;4.43;2.38;;;17.30;59.20;;;;;;4971831;28;20042;-78
2023/04/27 12:41:44;;;;;;;4.13;2.15;;;17.50;57.80;;;;;;4970719;28;20034;-78
2023/04/27 12:44:11;;;;;;;5.10;2.35;;;17.80;58.30;;;;;;4969119;28;20478;-78
2023/04/27 12:46:40;;;;;;;3.30;1.98;;;17.60;56.10;;;;;;4957306;28;20474;-78
2023/04/27 12:49:07;;;;;;;5.40;2.25;;;17.60;57.90;;;;;;4962118;28;20042;-78